Time;durP1;ratioP1;P1;durP2;ratioP2;P2;SDS_P1;SDS_P2;PMS_P1;PMS_P2;Temp;Humidity;BMP_temperature;BMP_pressure;BME280_temperature;BME280_humidity;BME280_pressure;Samples;Min_cycle;Max_cycle;Signal;HPM_P1;HPM_P2
2022/07/07 00:01:46;;;;;;;3.10;1.60;;;17.60;66.30;;;;;;5025200;28;20228;-78
2022/07/07 00:04:12;;;;;;;3.70;1.83;;;17.60;65.90;;;;;;5024833;28;20017;-78
2022/07/07 00:06:38;;;;;;;2.63;1.90;;;17.50;66.10;;;;;;5026149;28;20022;-78
2022/07/07 00:09:04;;;;;;;3.40;2.00;;;17.50;66.80;;;;;;5025060;28;20092;-80
2022/07/07 00:11:29;;;;;;;4.80;2.40;;;17.50;67.10;;;;;;5024833;28;20045;-78
2022/07/07 00:13:55;;;;;;;5.23;2.07;;;17.50;67.10;;;;;;5024328;28;20194;-77
2022/07/07 00:16:21;;;;;;;4.50;1.80;;;17.50;67.10;;;;;;5024845;28;20221;-77
2022/07/07 00:18:47;;;;;;;1.70;1.60;;;17.50;66.90;;;;;;5024749;28;20021;-79
2022/07/07 00:21:12;;;;;;;3.33;1.73;;;17.40;67.00;;;;;;5025141;28;20036;-79
2022/07/07 00:23:38;;;;;;;4.03;1.70;;;17.40;67.20;;;;;;5025626;28;20064;-78
2022/07/07 00:26:04;;;;;;;4.10;2.50;;;17.30;68.30;;;;;;5024684;28;20042;-78
2022/07/07 00:28:30;;;;;;;3.30;1.70;;;17.30;67.70;;;;;;5024746;28;20021;-78
2022/07/07 00:30:56;;;;;;;2.50;1.83;;;17.30;68.20;;;;;;5024404;28;20089;-78
2022/07/07 00:33:22;;;;;;;3.37;1.67;;;17.20;68.90;;;;;;5024371;28;20359;-78
2022/07/07 00:35:47;;;;;;;3.63;1.80;;;17.20;68.40;;;;;;5024742;28;20222;-79
2022/07/07 00:38:13;;;;;;;4.30;1.90;;;17.20;68.60;;;;;;5025396;28;20097;-80
2022/07/07 00:40:39;;;;;;;2.53;1.80;;;17.20;69.00;;;;;;5022510;28;20351;-80
2022/07/07 00:43:05;;;;;;;3.07;2.00;;;17.20;69.20;;;;;;5023349;28;20312;-79
2022/07/07 00:45:31;;;;;;;3.90;1.90;;;17.20;68.80;;;;;;5028192;23;20273;-72
2022/07/07 00:47:58;;;;;;;2.07;1.70;;;17.20;68.70;;;;;;4999355;28;20026;-73
2022/07/07 00:50:24;;;;;;;2.88;1.80;;;17.10;68.60;;;;;;4995080;28;20141;-72
2022/07/07 00:52:49;;;;;;;2.23;1.60;;;17.20;69.40;;;;;;5004127;28;20121;-72
2022/07/07 00:55:15;;;;;;;2.83;1.87;;;17.20;69.40;;;;;;5015792;28;20026;-73
2022/07/07 00:57:41;;;;;;;4.17;2.00;;;17.20;69.40;;;;;;5004459;28;20030;-73
2022/07/07 01:00:10;;;;;;;2.53;1.90;;;17.20;69.70;;;;;;5004076;28;20190;-73
2022/07/07 01:02:36;;;;;;;2.22;1.70;;;17.30;69.40;;;;;;5002737;28;20026;-73
2022/07/07 01:05:05;;;;;;;2.17;1.77;;;17.30;68.30;;;;;;5002757;28;20026;-73
2022/07/07 01:07:31;;;;;;;3.03;1.70;;;17.30;69.20;;;;;;4987093;28;20024;-72
2022/07/07 01:09:57;;;;;;;4.43;2.10;;;17.30;70.40;;;;;;4986941;28;20045;-73
2022/07/07 01:12:23;;;;;;;2.47;1.75;;;17.20;68.30;;;;;;4986724;28;20359;-70
2022/07/07 01:14:49;;;;;;;3.72;1.88;;;17.30;68.70;;;;;;5002125;28;20576;-69
2022/07/07 01:17:15;;;;;;;2.10;1.40;;;17.30;69.00;;;;;;5002781;28;20026;-70
2022/07/07 01:19:41;;;;;;;1.57;1.47;;;17.30;69.40;;;;;;4986244;28;20041;-71
2022/07/07 01:22:15;;;;;;;5.60;1.60;;;17.30;68.70;;;;;;5003878;28;20137;-70
2022/07/07 01:24:41;;;;;;;2.53;1.80;;;17.30;68.00;;;;;;4986304;28;20077;-71
2022/07/07 01:27:13;;;;;;;4.47;1.93;;;17.30;68.80;;;;;;5002622;28;20014;-70
2022/07/07 01:29:47;;;;;;;2.53;2.05;;;17.20;67.80;;;;;;5002343;28;20319;-71
2022/07/07 01:32:13;;;;;;;2.65;1.75;;;17.10;67.70;;;;;;4986642;28;20116;-70
2022/07/07 01:34:41;;;;;;;3.37;1.53;;;17.10;67.40;;;;;;4985982;28;20034;-70
2022/07/07 01:37:07;;;;;;;5.45;1.83;;;17.00;67.30;;;;;;4986482;28;20022;-70
2022/07/07 01:39:33;;;;;;;4.17;2.33;;;17.00;69.30;;;;;;4986114;28;20073;-70
2022/07/07 01:41:59;;;;;;;2.70;1.98;;;17.00;68.50;;;;;;4986284;28;20026;-70
2022/07/07 01:44:25;;;;;;;2.00;1.60;;;16.90;68.30;;;;;;5003110;28;20053;-69
2022/07/07 01:46:51;;;;;;;3.20;1.90;;;16.90;69.90;;;;;;5003087;28;20089;-69
2022/07/07 01:49:16;;;;;;;2.20;1.60;;;17.00;70.90;;;;;;5003373;28;20034;-69
2022/07/07 01:51:42;;;;;;;3.13;1.97;;;16.90;70.50;;;;;;5003172;28;20037;-69
2022/07/07 01:54:08;;;;;;;3.13;2.10;;;17.00;69.80;;;;;;5003055;28;20078;-70
2022/07/07 01:56:34;;;;;;;4.60;2.17;;;17.00;70.90;;;;;;4986031;28;20045;-70
2022/07/07 01:59:00;;;;;;;5.00;2.30;;;17.00;70.70;;;;;;5003193;28;20027;-70
2022/07/07 02:01:26;;;;;;;2.87;2.23;;;17.00;70.20;;;;;;5002716;28;20049;-71
2022/07/07 02:03:51;;;;;;;4.37;2.23;;;17.10;69.70;;;;;;5002856;28;20019;-71
2022/07/07 02:06:17;;;;;;;2.33;1.83;;;17.10;69.60;;;;;;5002627;28;20022;-71
2022/07/07 02:08:43;;;;;;;5.10;2.37;;;17.10;70.10;;;;;;5002854;28;20034;-70
2022/07/07 02:11:15;;;;;;;3.13;2.20;;;17.10;69.50;;;;;;5002965;28;20052;-71
2022/07/07 02:13:48;;;;;;;4.72;2.30;;;17.10;69.30;;;;;;5001605;28;20053;-70
2022/07/07 02:16:18;;;;;;;5.78;2.35;;;17.10;70.10;;;;;;5000859;28;20027;-72
2022/07/07 02:18:45;;;;;;;4.85;2.10;;;17.10;69.60;;;;;;5003134;28;20026;-71
2022/07/07 02:21:12;;;;;;;4.55;2.10;;;17.10;69.60;;;;;;4953813;28;20226;-71
2022/07/07 02:23:44;;;;;;;5.25;2.03;;;17.20;69.80;;;;;;5002496;28;20022;-71
2022/07/07 02:26:10;;;;;;;5.40;2.40;;;17.20;69.50;;;;;;5001401;28;20026;-71
2022/07/07 02:28:36;;;;;;;4.07;2.22;;;17.20;69.30;;;;;;5001444;28;20049;-71
2022/07/07 02:31:02;;;;;;;3.27;2.53;;;17.20;70.10;;;;;;5001213;28;20284;-70
2022/07/07 02:33:27;;;;;;;6.53;2.40;;;17.20;70.10;;;;;;5001115;28;20073;-71
2022/07/07 02:35:54;;;;;;;3.43;2.40;;;17.20;70.40;;;;;;4985164;28;20018;-71
2022/07/07 02:38:20;;;;;;;3.15;2.22;;;17.20;71.00;;;;;;5002450;28;20213;-70
2022/07/07 02:40:46;;;;;;;5.50;2.47;;;17.20;70.60;;;;;;5002292;28;20040;-71
2022/07/07 02:43:12;;;;;;;4.05;2.35;;;17.20;70.00;;;;;;5000996;28;20031;-70
2022/07/07 02:45:48;;;;;;;3.53;2.40;;;17.20;70.60;;;;;;5000694;28;20030;-71
2022/07/07 02:48:17;;;;;;;6.40;2.65;;;17.20;70.20;;;;;;4984577;28;20275;-70
2022/07/07 02:50:43;;;;;;;5.10;2.47;;;17.20;71.10;;;;;;5001245;28;20093;-71
2022/07/07 02:53:10;;;;;;;3.40;2.50;;;17.10;71.00;;;;;;5000664;28;20114;-71
2022/07/07 02:55:36;;;;;;;2.47;1.98;;;17.20;70.90;;;;;;4984940;28;20022;-71
2022/07/07 02:58:02;;;;;;;3.15;2.28;;;17.20;69.60;;;;;;5000948;28;20037;-71
2022/07/07 03:00:28;;;;;;;5.38;2.30;;;17.20;70.50;;;;;;5000737;28;20392;-71
2022/07/07 03:02:54;;;;;;;6.25;2.55;;;17.20;70.60;;;;;;5000592;28;20037;-71
2022/07/07 03:05:23;;;;;;;2.63;2.28;;;17.10;70.00;;;;;;5000793;28;20033;-71
2022/07/07 03:07:49;;;;;;;3.78;2.33;;;17.20;69.80;;;;;;5001440;28;20030;-71
2022/07/07 03:10:15;;;;;;;3.80;2.40;;;17.10;70.50;;;;;;5000657;28;20026;-71
2022/07/07 03:12:41;;;;;;;4.45;2.83;;;17.10;71.20;;;;;;5000547;28;20105;-71
2022/07/07 03:15:08;;;;;;;4.50;2.67;;;17.20;70.20;;;;;;5000309;28;20065;-71
2022/07/07 03:17:35;;;;;;;4.93;2.50;;;17.20;70.00;;;;;;5000378;28;20034;-71
2022/07/07 03:20:01;;;;;;;;;;;17.10;70.80;;;;;;5001144;28;20137;-71
2022/07/07 03:22:26;;;;;;;4.25;2.50;;;17.10;70.90;;;;;;5000588;28;20056;-70
2022/07/07 03:24:52;;;;;;;3.07;2.13;;;17.10;70.70;;;;;;5001900;28;20030;-70
2022/07/07 03:27:18;;;;;;;3.03;2.20;;;17.20;70.10;;;;;;5003099;28;20030;-70
2022/07/07 03:29:43;;;;;;;4.13;2.63;;;17.10;71.70;;;;;;5003046;28;20084;-70
2022/07/07 03:32:09;;;;;;;4.87;2.17;;;17.10;72.30;;;;;;5001690;28;20068;-70
2022/07/07 03:34:36;;;;;;;2.53;2.30;;;17.10;71.10;;;;;;5002621;28;20026;-71
2022/07/07 03:37:02;;;;;;;3.95;2.80;;;17.10;71.30;;;;;;5002149;28;20033;-71
2022/07/07 03:39:28;;;;;;;3.50;2.55;;;17.10;73.80;;;;;;4985751;28;20053;-71
2022/07/07 03:41:54;;;;;;;3.17;2.23;;;17.10;73.10;;;;;;5001773;28;20026;-71
2022/07/07 03:44:19;;;;;;;4.10;2.47;;;17.00;73.00;;;;;;5002416;28;20041;-71
2022/07/07 03:46:45;;;;;;;3.10;2.80;;;17.00;74.80;;;;;;4985698;28;20317;-71
2022/07/07 03:49:11;;;;;;;4.13;3.30;;;16.90;73.80;;;;;;5002256;28;20093;-69
2022/07/07 03:51:37;;;;;;;6.43;2.67;;;16.90;72.50;;;;;;5002679;28;20040;-70
2022/07/07 03:54:03;;;;;;;4.33;2.50;;;16.80;72.00;;;;;;5002564;28;20026;-70
2022/07/07 03:56:29;;;;;;;5.55;3.08;;;16.80;72.00;;;;;;5001684;28;20340;-71
2022/07/07 03:58:54;;;;;;;2.60;2.40;;;16.70;74.40;;;;;;5002701;28;20034;-70
2022/07/07 04:01:20;;;;;;;6.07;2.43;;;16.70;73.30;;;;;;5001454;28;20022;-70
2022/07/07 04:03:46;;;;;;;2.50;2.30;;;16.80;73.90;;;;;;5001371;28;20025;-71
2022/07/07 04:06:12;;;;;;;3.70;2.53;;;16.80;72.20;;;;;;5001785;28;20198;-70
2022/07/07 04:08:37;;;;;;;4.43;2.57;;;16.80;72.90;;;;;;5002794;28;20029;-71
2022/07/07 04:11:03;;;;;;;4.37;2.37;;;16.90;73.00;;;;;;5001604;28;20022;-71
2022/07/07 04:13:29;;;;;;;2.73;2.30;;;16.90;73.00;;;;;;5002399;28;20058;-71
2022/07/07 04:15:58;;;;;;;3.50;2.60;;;16.90;71.50;;;;;;5001781;28;20022;-70
2022/07/07 04:18:24;;;;;;;6.47;2.90;;;16.90;72.70;;;;;;5002642;28;20026;-70
2022/07/07 04:20:50;;;;;;;13.80;5.75;;;16.90;73.80;;;;;;5005017;28;20037;-71
2022/07/07 04:23:16;;;;;;;28.60;10.67;;;16.90;73.30;;;;;;5005124;28;20249;-71
2022/07/07 04:25:42;;;;;;;7.33;3.33;;;16.90;73.20;;;;;;5003681;28;20022;-70
2022/07/07 04:28:08;;;;;;;5.17;2.90;;;16.90;73.10;;;;;;5005675;28;20260;-70
2022/07/07 04:30:33;;;;;;;6.70;2.77;;;16.90;72.40;;;;;;5005575;28;20061;-70
2022/07/07 04:32:59;;;;;;;4.07;2.47;;;16.80;72.70;;;;;;4982435;28;20281;-70
2022/07/07 04:35:25;;;;;;;4.73;2.50;;;16.80;73.60;;;;;;5005577;28;20022;-70
2022/07/07 04:37:51;;;;;;;4.80;2.50;;;16.90;73.80;;;;;;4998567;28;20098;-70
2022/07/07 04:40:17;;;;;;;5.03;2.90;;;16.90;74.60;;;;;;5003298;28;20026;-70
2022/07/07 04:42:42;;;;;;;6.20;3.00;;;16.90;76.00;;;;;;4994867;28;20228;-70
2022/07/07 04:45:09;;;;;;;4.87;2.60;;;16.90;75.40;;;;;;5001595;28;20032;-70
2022/07/07 04:47:40;;;;;;;5.13;2.80;;;16.90;72.70;;;;;;5004365;28;20024;-69
2022/07/07 04:50:09;;;;;;;4.90;2.45;;;16.80;72.30;;;;;;5003320;28;20034;-70
2022/07/07 04:52:36;;;;;;;5.22;2.80;;;16.70;73.10;;;;;;5003338;28;20114;-70
2022/07/07 04:55:03;;;;;;;;;;;16.70;73.40;;;;;;4997315;28;20026;-70
2022/07/07 04:57:28;;;;;;;5.00;2.60;;;16.70;73.50;;;;;;4994728;28;20200;-70
2022/07/07 04:59:54;;;;;;;5.10;2.60;;;16.60;73.50;;;;;;4991062;28;20030;-69
2022/07/07 05:02:20;;;;;;;6.63;2.10;;;16.60;73.60;;;;;;4990638;28;20229;-69
2022/07/07 05:04:46;;;;;;;4.67;2.80;;;16.60;73.90;;;;;;4997097;28;20343;-69
2022/07/07 05:07:11;;;;;;;3.53;2.70;;;16.60;74.10;;;;;;5002535;28;20018;-69
2022/07/07 05:09:37;;;;;;;5.57;2.63;;;16.60;74.10;;;;;;5004939;28;20038;-69
2022/07/07 05:12:04;;;;;;;5.37;2.57;;;16.60;74.40;;;;;;5005270;28;20040;-69
2022/07/07 05:14:29;;;;;;;2.70;2.25;;;16.60;75.80;;;;;;5005456;28;20041;-69
2022/07/07 05:16:59;;;;;;;4.30;2.60;;;16.60;76.20;;;;;;5003900;28;20030;-69
2022/07/07 05:19:25;;;;;;;6.10;2.83;;;16.60;74.80;;;;;;5004740;28;20455;-69
2022/07/07 05:21:51;;;;;;;6.90;2.78;;;16.70;76.50;;;;;;5003977;28;20287;-69
2022/07/07 05:24:17;;;;;;;4.70;2.43;;;16.70;74.70;;;;;;5003742;28;20029;-71
2022/07/07 05:26:43;;;;;;;7.17;3.33;;;16.60;74.10;;;;;;5003955;28;20018;-70
2022/07/07 05:29:09;;;;;;;7.23;3.50;;;16.70;74.30;;;;;;5003759;28;20022;-70
2022/07/07 05:31:34;;;;;;;3.93;2.70;;;16.70;75.80;;;;;;5004448;28;20245;-70
2022/07/07 05:34:00;;;;;;;5.10;2.80;;;16.70;75.50;;;;;;5003405;28;20264;-70
2022/07/07 05:36:26;;;;;;;3.37;2.40;;;16.70;75.30;;;;;;5004712;28;20022;-70
2022/07/07 05:38:52;;;;;;;3.03;2.37;;;16.70;75.30;;;;;;5003824;28;20332;-70
2022/07/07 05:41:18;;;;;;;4.20;2.70;;;16.80;74.90;;;;;;5004695;28;20329;-70
2022/07/07 05:43:44;;;;;;;2.97;2.27;;;16.80;75.20;;;;;;5003294;28;20034;-70
2022/07/07 05:46:10;;;;;;;;;;;16.80;74.90;;;;;;5004554;28;20213;-70
2022/07/07 05:48:36;;;;;;;3.08;2.25;;;16.80;74.60;;;;;;5003376;28;19906;-70
2022/07/07 05:51:02;;;;;;;5.27;2.53;;;16.90;75.30;;;;;;5003140;28;20026;-70
2022/07/07 05:53:28;;;;;;;4.93;2.90;;;16.90;78.50;;;;;;5004191;28;20094;-71
2022/07/07 05:55:53;;;;;;;5.73;2.43;;;17.00;76.50;;;;;;5004507;28;20026;-70
2022/07/07 05:58:19;;;;;;;4.67;2.57;;;17.00;74.90;;;;;;5003375;28;20030;-70
2022/07/07 06:00:45;;;;;;;5.67;2.73;;;17.10;75.10;;;;;;5004138;28;20037;-70
2022/07/07 06:03:11;;;;;;;12.27;3.57;;;17.10;76.90;;;;;;5002879;28;20085;-70
2022/07/07 06:05:37;;;;;;;5.63;3.17;;;17.10;75.20;;;;;;5004166;28;20029;-70
2022/07/07 06:08:03;;;;;;;3.67;2.65;;;17.10;73.60;;;;;;5003027;28;20022;-70
2022/07/07 06:10:29;;;;;;;9.70;2.67;;;17.20;73.80;;;;;;5004121;28;20113;-70
2022/07/07 06:12:54;;;;;;;6.17;2.50;;;17.20;73.60;;;;;;5003748;28;20278;-70
2022/07/07 06:15:20;;;;;;;4.03;2.67;;;17.10;74.30;;;;;;5002517;28;20029;-70
2022/07/07 06:17:48;;;;;;;6.03;2.70;;;17.20;73.50;;;;;;5003895;28;20073;-70
2022/07/07 06:20:14;;;;;;;4.05;2.60;;;17.10;73.60;;;;;;5002811;28;20281;-72
2022/07/07 06:22:39;;;;;;;3.40;2.00;;;17.10;73.50;;;;;;5003910;28;20384;-71
2022/07/07 06:25:08;;;;;;;4.67;2.33;;;17.10;73.50;;;;;;5003562;28;20119;-72
2022/07/07 06:27:35;;;;;;;4.78;2.78;;;17.10;74.10;;;;;;5003799;28;20252;-72
2022/07/07 06:30:03;;;;;;;5.28;2.55;;;17.10;73.50;;;;;;4986521;28;20033;-71
2022/07/07 06:32:28;;;;;;;3.42;2.50;;;17.10;72.40;;;;;;4986367;28;20026;-69
2022/07/07 06:34:54;;;;;;;2.40;2.20;;;17.10;73.70;;;;;;5003305;28;20022;-72
2022/07/07 06:37:20;;;;;;;4.97;2.87;;;17.10;73.20;;;;;;5003798;28;20085;-71
2022/07/07 06:39:46;;;;;;;6.83;2.93;;;17.20;73.80;;;;;;5003590;28;20376;-71
2022/07/07 06:42:12;;;;;;;5.23;2.37;;;17.10;73.40;;;;;;4985740;28;20434;-69
2022/07/07 06:44:37;;;;;;;6.63;3.47;;;17.20;74.80;;;;;;5003052;28;20395;-69
2022/07/07 06:47:03;;;;;;;4.70;3.30;;;17.20;75.70;;;;;;5032643;23;20061;-81
2022/07/07 06:49:29;;;;;;;3.67;2.55;;;17.20;73.90;;;;;;5017317;28;20144;-80
2022/07/07 06:51:55;;;;;;;3.97;2.03;;;17.20;74.00;;;;;;5006118;28;20034;-81
2022/07/07 06:54:21;;;;;;;3.30;2.10;;;17.30;75.30;;;;;;5004644;28;20029;-80
2022/07/07 06:56:47;;;;;;;3.93;2.10;;;17.30;76.50;;;;;;5005466;28;20026;-80
2022/07/07 06:59:13;;;;;;;4.97;2.23;;;17.30;75.70;;;;;;5004564;28;20075;-81
2022/07/07 07:01:40;;;;;;;4.97;2.50;;;17.30;75.00;;;;;;4989236;28;20074;-80
2022/07/07 07:04:07;;;;;;;4.23;2.17;;;17.40;74.70;;;;;;5006825;28;20019;-81
2022/07/07 07:06:33;;;;;;;2.55;2.13;;;17.40;75.70;;;;;;4989217;28;20060;-81
2022/07/07 07:08:59;;;;;;;6.85;2.50;;;17.40;75.00;;;;;;5004867;28;20034;-82
2022/07/07 07:11:26;;;;;;;7.13;2.97;;;17.40;75.50;;;;;;5004848;28;20302;-81
2022/07/07 07:13:51;;;;;;;;;;;17.40;78.50;;;;;;5005087;28;20018;-81
2022/07/07 07:16:17;;;;;;;5.22;3.03;;;17.40;78.80;;;;;;4987531;28;19947;-81
2022/07/07 07:18:43;;;;;;;10.73;4.10;;;17.40;79.90;;;;;;4987482;28;20237;-81
2022/07/07 07:21:12;;;;;;;4.97;3.30;;;17.40;82.30;;;;;;4987704;28;20036;-81
2022/07/07 07:23:38;;;;;;;9.57;3.47;;;17.40;84.60;;;;;;4987753;28;20413;-81
2022/07/07 07:26:08;;;;;;;4.95;3.47;;;17.30;84.20;;;;;;5004005;28;20034;-81
2022/07/07 07:28:34;;;;;;;7.57;3.72;;;17.20;83.90;;;;;;4987636;28;20030;-81
2022/07/07 07:31:00;;;;;;;6.47;3.67;;;17.20;84.40;;;;;;4970994;28;20033;-81
2022/07/07 07:33:27;;;;;;;6.20;3.45;;;17.10;85.80;;;;;;4970913;28;20089;-80
2022/07/07 07:35:52;;;;;;;6.53;3.95;;;17.10;86.30;;;;;;4970882;28;20022;-81
2022/07/07 07:38:18;;;;;;;8.30;4.57;;;17.00;87.20;;;;;;4985935;28;20041;-81
2022/07/07 07:40:44;;;;;;;4.30;3.67;;;17.00;88.00;;;;;;5001929;28;20318;-81
2022/07/07 07:43:10;;;;;;;4.80;3.60;;;16.90;88.90;;;;;;4969805;28;20410;-81
2022/07/07 07:45:36;;;;;;;4.63;3.83;;;16.90;89.00;;;;;;4981777;28;20026;-77
2022/07/07 07:48:03;;;;;;;7.65;3.83;;;16.90;88.60;;;;;;4949377;28;20030;-77
2022/07/07 07:50:29;;;;;;;4.82;3.40;;;16.90;88.90;;;;;;4961160;28;20030;-77
2022/07/07 07:52:55;;;;;;;6.35;4.00;;;16.90;86.80;;;;;;4969113;28;20229;-77
2022/07/07 07:55:21;;;;;;;6.80;3.83;;;16.90;88.60;;;;;;4989088;28;20030;-79
2022/07/07 07:57:48;;;;;;;7.85;3.30;;;16.90;90.20;;;;;;4989221;28;20257;-79
2022/07/07 08:00:16;;;;;;;5.53;3.60;;;16.90;90.30;;;;;;4972509;28;20050;-79
2022/07/07 08:02:42;;;;;;;7.28;3.58;;;16.90;90.90;;;;;;4988252;28;20226;-79
2022/07/07 08:05:10;;;;;;;7.80;3.30;;;16.90;90.80;;;;;;4973109;28;20034;-83
2022/07/07 08:07:36;;;;;;;9.32;3.47;;;16.90;91.00;;;;;;4972988;28;20014;-76
2022/07/07 08:10:02;;;;;;;9.55;4.00;;;16.80;91.20;;;;;;5004490;28;20030;-76
2022/07/07 08:12:28;;;;;;;9.13;3.67;;;16.90;91.50;;;;;;4988231;28;20034;-76
2022/07/07 08:14:54;;;;;;;6.03;3.77;;;16.80;91.40;;;;;;4987800;28;20045;-75
2022/07/07 08:17:20;;;;;;;5.80;4.00;;;16.80;91.30;;;;;;5004782;28;20057;-74
2022/07/07 08:19:46;;;;;;;6.33;3.40;;;16.80;91.40;;;;;;4971520;28;20347;-75
2022/07/07 08:22:12;;;;;;;8.80;4.70;;;16.80;90.90;;;;;;4987296;28;20085;-74
2022/07/07 08:24:38;;;;;;;5.43;3.10;;;16.70;90.60;;;;;;5003494;28;20022;-75
2022/07/07 08:27:04;;;;;;;5.40;3.60;;;16.80;90.50;;;;;;5003738;28;20045;-74
2022/07/07 08:29:30;;;;;;;7.20;3.53;;;16.80;91.50;;;;;;5003779;28;20091;-74
2022/07/07 08:31:55;;;;;;;5.10;3.70;;;16.80;91.70;;;;;;5003427;28;20273;-74
2022/07/07 08:34:21;;;;;;;9.57;3.77;;;16.80;91.60;;;;;;5003492;28;20030;-77
2022/07/07 08:36:47;;;;;;;5.33;3.87;;;16.80;91.60;;;;;;5004810;28;20036;-77
2022/07/07 08:39:13;;;;;;;6.07;4.18;;;16.70;90.80;;;;;;5003518;28;20050;-77
2022/07/07 08:41:40;;;;;;;7.75;4.38;;;16.80;91.20;;;;;;5003415;28;20022;-77
2022/07/07 08:44:05;;;;;;;7.90;4.25;;;16.80;91.80;;;;;;5003158;28;20018;-77
2022/07/07 08:46:31;;;;;;;6.70;4.73;;;16.80;91.20;;;;;;4986817;28;20033;-77
2022/07/07 08:48:57;;;;;;;7.87;5.43;;;16.70;90.90;;;;;;5005491;28;20026;-82
2022/07/07 08:51:23;;;;;;;8.10;4.93;;;16.70;90.90;;;;;;4988106;28;20045;-83
2022/07/07 08:53:49;;;;;;;13.13;4.65;;;16.70;91.10;;;;;;4988002;28;20029;-83
2022/07/07 08:56:18;;;;;;;8.63;4.57;;;16.70;91.40;;;;;;5004687;28;20034;-84
2022/07/07 08:58:44;;;;;;;7.32;5.10;;;16.70;91.30;;;;;;4988651;28;20027;-82
2022/07/07 09:01:10;;;;;;;5.70;4.07;;;16.80;92.00;;;;;;5004692;28;20049;-79
2022/07/07 09:03:36;;;;;;;5.47;4.10;;;16.80;91.90;;;;;;5006025;28;20037;-83
2022/07/07 09:06:02;;;;;;;8.77;4.30;;;16.70;92.00;;;;;;5004087;28;20026;-82
2022/07/07 09:08:29;;;;;;;5.78;4.22;;;16.70;92.20;;;;;;4988672;28;20198;-82
2022/07/07 09:10:55;;;;;;;6.35;4.13;;;16.80;92.40;;;;;;4988989;28;20029;-82
2022/07/07 09:13:21;;;;;;;9.40;4.67;;;16.80;92.60;;;;;;5006646;28;20037;-83
2022/07/07 09:15:47;;;;;;;7.13;4.32;;;16.80;93.20;;;;;;5006541;28;20029;-83
2022/07/07 09:18:38;;;;;;;9.83;4.60;;;16.80;93.30;;;;;;5006788;28;20040;-82
2022/07/07 09:21:25;;;;;;;12.48;5.70;;;16.80;93.10;;;;;;5005102;28;20281;-83
2022/07/07 09:23:53;;;;;;;4.75;3.38;;;16.80;93.20;;;;;;4988131;28;20322;-74
2022/07/07 09:26:40;;;;;;;6.18;4.00;;;16.80;93.30;;;;;;4993420;28;20229;-74
2022/07/07 09:29:09;;;;;;;9.27;4.40;;;16.90;93.20;;;;;;5004975;28;20057;-73
2022/07/07 09:31:58;;;;;;;8.95;4.45;;;16.90;93.30;;;;;;5000694;28;20042;-73
2022/07/07 09:34:35;;;;;;;5.25;3.67;;;16.90;93.30;;;;;;5004364;28;20334;-77
2022/07/07 09:39:55;;;;;;;7.07;4.28;;;16.90;93.50;;;;;;5003971;28;20112;-77
2022/07/07 09:42:32;;;;;;;5.07;3.72;;;16.90;94.20;;;;;;5003586;28;20034;-74
2022/07/07 09:44:57;;;;;;;7.50;4.40;;;17.00;94.60;;;;;;5003312;28;20014;-74
2022/07/07 09:47:24;;;;;;;4.83;3.70;;;17.00;94.80;;;;;;5004055;28;20057;-74
2022/07/07 09:50:11;;;;;;;7.03;4.47;;;17.10;95.10;;;;;;5003393;28;20026;-73
2022/07/07 09:52:39;;;;;;;9.63;5.25;;;17.20;95.40;;;;;;5003351;28;20230;-74
2022/07/07 09:55:08;;;;;;;5.32;4.07;;;17.30;95.40;;;;;;5003123;28;20325;-74
2022/07/07 09:57:34;;;;;;;7.95;4.18;;;17.40;94.60;;;;;;4987624;28;20035;-74
2022/07/07 10:00:00;;;;;;;8.75;4.35;;;17.50;94.60;;;;;;4986871;28;20044;-74
2022/07/07 10:02:32;;;;;;;7.90;4.57;;;17.60;95.10;;;;;;5002960;28;20026;-74
2022/07/07 10:04:59;;;;;;;5.18;4.22;;;17.60;94.30;;;;;;5004003;28;20084;-74
2022/07/07 10:07:28;;;;;;;5.38;4.20;;;17.70;94.30;;;;;;4986860;28;20214;-74
2022/07/07 10:10:13;;;;;;;7.10;4.00;;;17.70;94.50;;;;;;5004220;28;20085;-74
2022/07/07 10:12:46;;;;;;;5.97;4.18;;;17.80;94.80;;;;;;5002717;28;20121;-73
2022/07/07 10:15:12;;;;;;;5.85;4.35;;;17.80;94.90;;;;;;5002751;28;20072;-74
2022/07/07 10:17:42;;;;;;;5.33;3.70;;;17.80;95.40;;;;;;4985489;28;20023;-78
2022/07/07 10:20:08;;;;;;;6.85;3.47;;;17.90;93.70;;;;;;4987385;28;20129;-78
2022/07/07 10:22:35;;;;;;;6.35;4.28;;;17.90;93.00;;;;;;5002664;28;20026;-78
2022/07/07 10:25:02;;;;;;;5.75;3.17;;;17.90;93.70;;;;;;4954307;28;20026;-77
2022/07/07 10:27:29;;;;;;;4.85;3.10;;;17.90;92.90;;;;;;4986569;28;20352;-77
2022/07/07 10:29:58;;;;;;;5.00;3.22;;;17.90;92.60;;;;;;5002779;28;20306;-77
2022/07/07 10:32:52;;;;;;;6.43;2.80;;;17.90;93.00;;;;;;4986489;28;20073;-77
2022/07/07 10:35:18;;;;;;;7.00;3.20;;;17.80;92.80;;;;;;5003827;28;20026;-77
2022/07/07 10:37:48;;;;;;;5.25;2.90;;;17.90;93.40;;;;;;4986985;28;20088;-78
2022/07/07 10:40:26;;;;;;;5.00;3.00;;;17.80;93.80;;;;;;4985669;28;20117;-78
2022/07/07 10:43:18;;;;;;;3.28;2.78;;;17.80;94.10;;;;;;5002369;28;20041;-77
2022/07/07 10:45:46;;;;;;;3.92;2.70;;;17.90;93.90;;;;;;5003076;28;20069;-78
2022/07/07 10:48:50;;;;;;;3.80;2.90;;;17.90;94.20;;;;;;4986142;28;20107;-78
2022/07/07 10:51:20;;;;;;;6.05;3.28;;;18.00;93.80;;;;;;5001415;28;20030;-77
2022/07/07 10:54:06;;;;;;;4.18;2.70;;;18.00;94.50;;;;;;5003115;28;20022;-79
2022/07/07 10:56:51;;;;;;;8.38;2.90;;;18.10;94.60;;;;;;5002237;28;20030;-78
2022/07/07 10:59:17;;;;;;;3.70;3.10;;;18.10;93.50;;;;;;5003366;28;20356;-78
2022/07/07 11:02:06;;;;;;;5.13;3.10;;;18.20;93.50;;;;;;5002001;28;20025;-78
2022/07/07 11:04:41;;;;;;;5.65;3.08;;;18.20;94.00;;;;;;4999707;28;20101;-78
2022/07/07 11:07:21;;;;;;;3.35;2.47;;;18.20;93.60;;;;;;5003128;28;20029;-78
2022/07/07 11:10:11;;;;;;;6.35;3.20;;;18.20;93.20;;;;;;5003189;28;20022;-78
2022/07/07 11:12:47;;;;;;;8.10;3.95;;;18.20;93.00;;;;;;5001928;28;20033;-78
2022/07/07 11:15:27;;;;;;;5.60;3.95;;;18.30;93.50;;;;;;4985643;28;20037;-77
2022/07/07 11:17:52;;;;;;;5.88;3.10;;;18.30;93.30;;;;;;5003129;28;20404;-79
2022/07/07 11:20:23;;;;;;;7.73;2.93;;;18.30;93.60;;;;;;5002689;28;20030;-79
2022/07/07 11:22:53;;;;;;;4.93;3.28;;;18.40;93.10;;;;;;4970223;28;20045;-79
2022/07/07 11:25:21;;;;;;;6.32;3.55;;;18.30;92.80;;;;;;5001644;28;20014;-78
2022/07/07 11:27:51;;;;;;;5.85;3.17;;;18.30;92.90;;;;;;4987019;28;20031;-79
2022/07/07 11:30:21;;;;;;;6.63;4.38;;;18.30;93.10;;;;;;4989752;28;20081;-75
2022/07/07 11:32:47;;;;;;;12.05;3.80;;;18.30;93.20;;;;;;5005938;28;20026;-78
2022/07/07 11:35:13;;;;;;;5.93;3.13;;;18.30;93.40;;;;;;5006581;28;20045;-78
2022/07/07 11:37:46;;;;;;;7.43;3.40;;;18.30;93.30;;;;;;5007263;28;20030;-78
2022/07/07 11:40:12;;;;;;;5.60;3.30;;;18.30;94.00;;;;;;4973590;28;20030;-78
2022/07/07 11:42:38;;;;;;;7.03;3.80;;;18.40;94.50;;;;;;5007199;28;20026;-78
2022/07/07 11:45:04;;;;;;;7.10;3.58;;;18.40;94.30;;;;;;5008097;28;20026;-78
2022/07/07 11:47:34;;;;;;;9.80;3.60;;;18.30;94.00;;;;;;4974494;28;20033;-78
2022/07/07 11:50:00;;;;;;;5.15;3.40;;;18.40;94.00;;;;;;4990100;28;20029;-78
2022/07/07 11:52:26;;;;;;;4.90;3.80;;;18.30;93.80;;;;;;4990434;28;20030;-78
2022/07/07 11:54:52;;;;;;;4.70;2.80;;;18.30;93.90;;;;;;5007004;28;20340;-79
2022/07/07 11:57:35;;;;;;;9.07;3.73;;;18.40;92.80;;;;;;5006754;28;20038;-78
2022/07/07 12:00:16;;;;;;;7.35;2.90;;;18.40;92.60;;;;;;5007562;28;20316;-78
2022/07/07 12:02:43;;;;;;;4.05;2.22;;;18.50;92.40;;;;;;5007416;28;20030;-80
2022/07/07 12:05:09;;;;;;;4.45;2.30;;;18.40;92.50;;;;;;5007224;28;20018;-78
2022/07/07 12:07:35;;;;;;;5.18;2.90;;;18.50;91.70;;;;;;5007997;28;20037;-78
2022/07/07 12:10:01;;;;;;;5.60;2.30;;;18.50;91.50;;;;;;5007580;28;20038;-78
2022/07/07 12:12:26;;;;;;;2.80;2.40;;;18.50;92.20;;;;;;5007675;28;20026;-78
2022/07/07 12:14:52;;;;;;;6.97;2.77;;;18.50;92.80;;;;;;5007777;28;20026;-78
2022/07/07 12:17:38;;;;;;;5.17;3.07;;;18.50;92.90;;;;;;5007894;28;20026;-78
2022/07/07 12:20:05;;;;;;;5.88;3.15;;;18.50;93.00;;;;;;5008201;28;20030;-78
2022/07/07 12:22:42;;;;;;;5.32;3.00;;;18.60;93.10;;;;;;5023925;28;20022;-78
2022/07/07 12:25:10;;;;;;;11.90;3.83;;;18.50;93.70;;;;;;5007292;28;20029;-79
2022/07/07 12:28:09;;;;;;;4.90;2.85;;;18.60;94.30;;;;;;5006973;28;20117;-78
2022/07/07 12:30:50;;;;;;;3.83;2.65;;;18.60;94.70;;;;;;5006936;28;20037;-77
2022/07/07 12:33:39;;;;;;;5.03;2.90;;;18.60;94.60;;;;;;5006429;28;20022;-77
2022/07/07 12:36:24;;;;;;;6.55;3.40;;;18.60;94.80;;;;;;5007472;28;20209;-77
2022/07/07 12:38:58;;;;;;;7.18;3.28;;;18.60;93.90;;;;;;5005449;28;20264;-78
2022/07/07 12:41:28;;;;;;;4.75;3.25;;;18.60;94.30;;;;;;4989502;28;20068;-77
2022/07/07 12:44:19;;;;;;;4.75;3.40;;;18.50;95.00;;;;;;5022067;28;20081;-78
2022/07/07 12:46:45;;;;;;;6.07;3.08;;;18.50;95.90;;;;;;5013091;23;20118;-79
2022/07/07 12:49:11;;;;;;;7.55;4.82;;;18.40;96.30;;;;;;5000400;28;20195;-79
2022/07/07 12:51:38;;;;;;;7.35;3.47;;;18.40;96.60;;;;;;4971512;28;20225;-76
2022/07/07 12:54:04;;;;;;;6.53;3.75;;;18.40;97.40;;;;;;4985211;28;20094;-78
2022/07/07 12:56:32;;;;;;;4.67;3.77;;;18.30;98.30;;;;;;4970639;28;20027;-79